CheckWX is a tool to help pilots better visualize weather data.  It is not intended as a substitute for an official pre-flight weather briefing.

22:56:04 UTC

KMIB TAF
Minot AFB Airport
Minot, North Dakota, USA
TAF AMD KMIB 312223Z 3122/0123 17015G25KT 9999 BKN030 QNH2974INS TEMPO 3122/3124 8000 -TSRA OVC020CB BECMG 3123/3124 31015G25KT 8000 -SHRA OVC020 QNH2976INS TEMPO 0100/0102 8000 -TSRA OVC020CB BECMG 0107/0108 35015G25KT 4800 -RASN OVC005 QNH2978INS BECMG 0112/0113 36020G30KT 3200 -SN OVC005 QNH2976INS TX15/3122Z TNM01/0113Z

Mar-31@
22:00 UTC

Mar-31 @ 22:00 UTC

Mar-31@
23:00 UTC

Mar-31 @ 23:00 UTC

TAF AMD KMIB 312223Z 3122/0123 17015G25KT 9999 BKN030 QNH2974INS
Wind
  • 170° at 15 KTS
  • {Gusting to 25 KTS
Cloud Levels
  • Broken at 3,000' AGL

Mar-31@
22:00 UTC

Mar-31 @ 22:00 UTC

Apr-1@
00:00 UTC

Apr-1 @ 00:00 UTC

TEMPO 3122/3124 8000 -TSRA OVC020CB

Temporary

Temporary Changes expected for less than half the time period

Conditions
Light Thunderstorm, Rain
Cloud Levels
  • Overcast at 2,000' AGL

Mar-31@
23:00 UTC

Mar-31 @ 23:00 UTC

Apr-1@
07:00 UTC

Apr-1 @ 07:00 UTC

BECMG 3123/3124 31015G25KT 8000 -SHRA OVC020 QNH2976INS

Becoming

Becoming Conditions expected by Wed, Apr 1, 2020 @ 00:00 UTC

Wind
  • 310° at 15 KTS
  • {Gusting to 25 KTS
Conditions
Light Showers, Rain
Cloud Levels
  • Overcast at 2,000' AGL

Apr-1@
00:00 UTC

Apr-1 @ 00:00 UTC

Apr-1@
02:00 UTC

Apr-1 @ 02:00 UTC

TEMPO 0100/0102 8000 -TSRA OVC020CB

Temporary

Temporary Changes expected for less than half the time period

Conditions
Light Thunderstorm, Rain
Cloud Levels
  • Overcast at 2,000' AGL

Apr-1@
07:00 UTC

Apr-1 @ 07:00 UTC

Apr-1@
12:00 UTC

Apr-1 @ 12:00 UTC

BECMG 0107/0108 35015G25KT 4800 -RASN OVC005 QNH2978INS

Becoming

Becoming Conditions expected by Wed, Apr 1, 2020 @ 08:00 UTC

Wind
  • 350° at 15 KTS
  • {Gusting to 25 KTS
Conditions
Light Rain, Light Snow
Cloud Levels
  • Overcast at 500' AGL

Apr-1@
12:00 UTC

Apr-1 @ 12:00 UTC

Apr-1@
23:00 UTC

Apr-1 @ 23:00 UTC

BECMG 0112/0113 36020G30KT 3200 -SN OVC005 QNH2976INS TX15/3122Z TNM01/0113Z

Becoming

Becoming Conditions expected by Wed, Apr 1, 2020 @ 13:00 UTC

Wind
  • 360° at 20 KTS
  • {Gusting to 30 KTS
Conditions
Light Snow
Cloud Levels
  • Overcast at 500' AGL